Welcome to the New NWS' Forecast!
Most changes are behind the scenes, but click here for differences you might notice.

Terminal Aerodrome Forecast (TAF)

Issued by National Weather Service (NWS)

                            
000
FTUS42 KMFL 150841 AAA
TAFMIA
TAF AMD
KMIA 150841Z 1509/1612 11008KT P6SM FEW025
     FM151500 10012KT P6SM SCT025
     FM160400 10008KT P6SM SKC=